createdAt,value
2019-04-20T00:01:32.318Z,2.27
2019-04-20T00:03:58.871Z,1.80
2019-04-20T00:06:25.241Z,2.00
2019-04-20T00:08:59.808Z,1.72
2019-04-20T00:11:27.591Z,2.30
2019-04-20T00:13:55.232Z,2.45
2019-04-20T00:16:16.840Z,1.77
2019-04-20T00:18:49.858Z,2.08
2019-04-20T00:21:17.521Z,1.98
2019-04-20T00:23:48.040Z,2.02
2019-04-20T00:26:26.808Z,1.80
2019-04-20T00:29:04.498Z,2.10
2019-04-20T00:31:26.744Z,1.60
2019-04-20T00:33:52.743Z,1.75
2019-04-20T00:36:08.977Z,1.85
2019-04-20T00:38:42.662Z,2.33
2019-04-20T00:41:07.574Z,1.82
2019-04-20T00:43:37.240Z,2.00
2019-04-20T00:46:09.922Z,1.87
2019-04-20T00:48:38.919Z,1.95
2019-04-20T00:53:34.226Z,2.00
2019-04-20T00:55:54.987Z,1.67
2019-04-20T00:58:28.907Z,2.20
2019-04-20T01:01:20.669Z,2.08
2019-04-20T01:03:33.826Z,1.87
2019-04-20T01:06:12.129Z,1.92
2019-04-20T01:08:21.721Z,1.90
2019-04-20T01:10:51.466Z,1.75
2019-04-20T01:13:20.062Z,2.05
2019-04-20T01:18:13.988Z,2.00
2019-04-20T01:20:41.066Z,2.20
2019-04-20T01:23:12.465Z,1.80
2019-04-20T01:25:40.984Z,1.70
2019-04-20T01:28:24.486Z,2.40
2019-04-20T01:35:44.164Z,2.02
2019-04-20T01:38:16.828Z,2.02
2019-04-20T01:40:25.524Z,1.77
2019-04-20T01:42:53.127Z,1.90
2019-04-20T01:45:27.403Z,1.90
2019-04-20T01:47:54.016Z,2.00
2019-04-20T01:50:21.206Z,1.85
2019-04-20T01:52:56.868Z,1.80
2019-04-20T01:55:38.689Z,1.55
2019-04-20T01:58:32.646Z,1.67
2019-04-20T02:00:44.970Z,2.05
2019-04-20T02:03:36.937Z,1.80
2019-04-20T02:06:13.619Z,1.72
2019-04-20T02:08:37.821Z,1.60
2019-04-20T02:11:06.180Z,1.77
2019-04-20T02:13:39.711Z,1.80
2019-04-20T02:16:11.367Z,2.25
2019-04-20T02:18:41.454Z,1.80
2019-04-20T02:21:15.101Z,1.70
2019-04-20T02:23:35.050Z,1.77
2019-04-20T02:25:54.186Z,1.77
2019-04-20T02:28:37.198Z,1.70
2019-04-20T02:33:56.755Z,1.60
2019-04-20T02:41:36.198Z,1.82
2019-04-20T02:49:04.597Z,1.65
2019-04-20T02:51:31.285Z,1.95
2019-04-20T02:56:21.790Z,1.55
2019-04-20T02:58:56.229Z,1.67
2019-04-20T03:03:25.197Z,1.65
2019-04-20T03:05:58.252Z,1.95
2019-04-20T03:08:26.215Z,2.35
2019-04-20T03:11:06.214Z,1.90
2019-04-20T03:13:25.501Z,1.65
2019-04-20T03:15:56.506Z,2.12
2019-04-20T03:18:25.562Z,1.82
2019-04-20T03:20:54.903Z,1.80
2019-04-20T03:23:31.876Z,2.17
2019-04-20T03:25:55.543Z,1.42
2019-04-20T03:28:18.470Z,2.10
2019-04-20T03:31:22.790Z,1.80
2019-04-20T03:33:44.686Z,1.95
2019-04-20T03:35:58.732Z,1.80
2019-04-20T03:38:15.646Z,1.50
2019-04-20T03:45:22.975Z,1.62
2019-04-20T03:48:00.729Z,1.95
2019-04-20T03:50:39.371Z,2.10
2019-04-20T03:53:12.840Z,1.92
2019-04-20T03:55:40.926Z,1.92
2019-04-20T03:58:18.590Z,1.60
2019-04-20T04:00:55.472Z,1.80
2019-04-20T04:03:47.212Z,1.75
2019-04-20T04:06:04.145Z,1.72
2019-04-20T04:08:25.401Z,2.12
2019-04-20T04:11:06.494Z,2.25
2019-04-20T04:15:48.367Z,1.90
2019-04-20T04:18:17.830Z,2.05
2019-04-20T04:20:47.854Z,1.92
2019-04-20T04:25:55.674Z,1.85
2019-04-20T04:35:44.246Z,1.92
2019-04-20T04:50:21.091Z,1.32
2019-04-20T04:57:41.296Z,1.85
2019-04-20T05:00:11.833Z,1.70
2019-04-20T05:02:43.236Z,2.15
2019-04-20T05:07:51.461Z,1.77
2019-04-20T05:10:11.896Z,2.20
2019-04-20T05:12:39.365Z,1.70
2019-04-20T05:15:15.763Z,1.95
2019-04-20T05:17:57.377Z,2.10
2019-04-20T05:20:23.054Z,1.95
2019-04-20T05:22:58.176Z,1.92
2019-04-20T05:25:51.992Z,1.80
2019-04-20T05:28:15.382Z,1.40
2019-04-20T05:30:26.616Z,1.60
2019-04-20T05:32:59.457Z,1.42
2019-04-20T05:35:47.722Z,2.02
2019-04-20T05:38:11.501Z,1.80
2019-04-20T05:40:44.427Z,1.57
2019-04-20T05:43:10.729Z,1.67
2019-04-20T05:45:35.410Z,1.60
2019-04-20T05:48:05.433Z,1.52
2019-04-20T05:50:36.414Z,2.02
2019-04-20T05:53:07.713Z,1.90
2019-04-20T05:58:01.997Z,1.70
2019-04-20T06:00:34.922Z,1.95
2019-04-20T06:02:54.871Z,1.80
2019-04-20T06:05:28.737Z,1.77
2019-04-20T06:07:56.579Z,1.95
2019-04-20T06:10:27.472Z,1.50
2019-04-20T06:12:52.971Z,2.12
2019-04-20T06:15:21.169Z,2.62
2019-04-20T06:18:01.000Z,2.12
2019-04-20T06:20:32.869Z,1.65
2019-04-20T06:23:15.690Z,2.08
2019-04-20T06:25:50.857Z,2.45
2019-04-20T06:28:03.717Z,1.93
2019-04-20T06:30:28.486Z,1.40
2019-04-20T06:33:55.262Z,1.55
2019-04-20T06:36:29.205Z,1.77
2019-04-20T06:43:36.834Z,2.12
2019-04-20T06:46:11.577Z,1.95
2019-04-20T06:48:36.737Z,1.30
2019-04-20T06:50:54.040Z,1.60
2019-04-20T06:53:32.262Z,1.62
2019-04-20T06:56:09.938Z,1.45
2019-04-20T06:58:43.744Z,1.80
2019-04-20T07:01:02.148Z,1.42
2019-04-20T07:03:44.117Z,1.40
2019-04-20T07:06:07.785Z,1.62
2019-04-20T07:08:45.203Z,1.60
2019-04-20T07:10:58.033Z,1.62
2019-04-20T07:13:15.126Z,1.72
2019-04-20T07:15:46.199Z,1.70
2019-04-20T07:18:24.659Z,1.55
2019-04-20T07:21:00.604Z,1.30
2019-04-20T07:23:26.509Z,1.40
2019-04-20T07:26:12.741Z,1.45
2019-04-20T07:28:19.686Z,1.40
2019-04-20T07:30:48.575Z,1.60
2019-04-20T07:33:15.622Z,1.65
2019-04-20T07:35:40.538Z,1.30
2019-04-20T07:40:38.315Z,1.67
2019-04-20T07:43:04.671Z,1.57
2019-04-20T07:45:33.513Z,1.42
2019-04-20T08:00:35.568Z,1.42
2019-04-20T08:03:12.845Z,1.65
2019-04-20T08:05:29.618Z,1.77
2019-04-20T08:07:53.935Z,1.60
2019-04-20T08:10:32.558Z,1.22
2019-04-20T08:18:13.622Z,1.40
2019-04-20T08:20:27.924Z,1.62
2019-04-20T08:23:01.647Z,1.42
2019-04-20T08:25:16.683Z,1.72
2019-04-20T08:27:52.935Z,1.25
2019-04-20T08:30:38.847Z,1.40
2019-04-20T08:33:22.727Z,1.50
2019-04-20T08:35:52.513Z,1.50
2019-04-20T08:38:49.836Z,1.32
2019-04-20T08:40:52.096Z,1.40
2019-04-20T08:43:32.686Z,1.30
2019-04-20T08:50:44.051Z,1.50
2019-04-20T08:53:21.521Z,1.40
2019-04-20T08:55:35.703Z,1.42
2019-04-20T09:00:20.236Z,1.40
2019-04-20T09:02:48.871Z,1.82
2019-04-20T09:07:50.127Z,1.37
2019-04-20T09:12:54.345Z,1.40
2019-04-20T09:15:06.381Z,1.60
2019-04-20T09:17:54.033Z,1.57
2019-04-20T09:20:27.223Z,1.40
2019-04-20T09:23:02.404Z,1.80
2019-04-20T09:25:48.460Z,1.50
2019-04-20T09:27:50.786Z,1.50
2019-04-20T09:30:25.776Z,1.20
2019-04-20T09:33:09.853Z,1.50
2019-04-20T09:35:37.331Z,1.32
2019-04-20T09:38:06.116Z,1.70
2019-04-20T09:40:35.529Z,1.80
2019-04-20T09:42:49.912Z,1.47
2019-04-20T09:45:35.564Z,1.47
2019-04-20T09:47:57.135Z,1.67
2019-04-20T09:50:44.878Z,1.30
2019-04-20T09:53:08.942Z,1.60
2019-04-20T09:55:31.327Z,1.67
2019-04-20T09:58:05.192Z,1.57
2019-04-20T10:00:38.284Z,1.30
2019-04-20T10:02:48.428Z,1.22
2019-04-20T10:05:15.655Z,1.40
2019-04-20T10:07:42.594Z,1.30
2019-04-20T10:10:23.886Z,1.25
2019-04-20T10:12:39.740Z,1.40
2019-04-20T10:15:12.522Z,1.25
2019-04-20T10:17:35.733Z,1.57
2019-04-20T10:22:32.889Z,1.47
2019-04-20T10:25:00.219Z,1.50
2019-04-20T10:27:26.605Z,1.60
2019-04-20T10:29:53.551Z,1.60
2019-04-20T10:32:19.953Z,1.20
2019-04-20T10:34:46.499Z,1.32
2019-04-20T10:37:15.621Z,1.25
2019-04-20T10:39:42.640Z,1.20
2019-04-20T10:42:10.125Z,1.60
2019-04-20T10:44:36.964Z,1.40
2019-04-20T10:47:03.464Z,1.42
2019-04-20T10:49:31.097Z,1.17
2019-04-20T10:51:57.874Z,1.45
2019-04-20T10:54:24.669Z,1.37
2019-04-20T10:56:51.801Z,1.27
2019-04-20T10:59:19.285Z,1.27
2019-04-20T11:01:45.821Z,1.40
2019-04-20T11:04:14.453Z,1.50
2019-04-20T11:06:41.140Z,1.30
2019-04-20T11:09:08.892Z,1.35
2019-04-20T11:11:36.933Z,1.37
2019-04-20T11:14:11.538Z,1.10
2019-04-20T11:16:32.818Z,1.35
2019-04-20T11:18:59.109Z,1.05
2019-04-20T11:21:26.257Z,1.10
2019-04-20T11:23:52.649Z,1.30
2019-04-20T11:26:20.160Z,1.20
2019-04-20T11:28:46.653Z,1.10
2019-04-20T11:31:14.307Z,1.10
2019-04-20T11:33:40.788Z,1.47
2019-04-20T11:36:07.421Z,1.07
2019-04-20T11:38:35.209Z,1.12
2019-04-20T11:41:11.371Z,1.42
2019-04-20T11:45:56.530Z,1.47
2019-04-20T11:48:23.373Z,1.02
2019-04-20T11:50:49.790Z,1.17
2019-04-20T11:53:17.337Z,1.60
2019-04-20T11:55:44.603Z,1.57
2019-04-20T11:58:12.056Z,1.47
2019-04-20T12:00:53.990Z,1.20
2019-04-20T12:03:23.708Z,1.15
2019-04-20T12:05:49.643Z,1.05
2019-04-20T12:08:12.889Z,1.07
2019-04-20T12:10:43.632Z,1.17
2019-04-20T12:13:07.986Z,1.25
2019-04-20T12:15:36.841Z,1.10
2019-04-20T12:18:03.761Z,1.02
2019-04-20T12:20:32.404Z,1.40
2019-04-20T12:23:00.195Z,1.00
2019-04-20T12:25:28.063Z,1.37
2019-04-20T12:27:58.292Z,1.40
2019-04-20T12:30:23.923Z,1.20
2019-04-20T12:32:55.110Z,0.93
2019-04-20T12:35:20.573Z,1.10
2019-04-20T12:37:47.360Z,1.20
2019-04-20T12:40:17.453Z,1.12
2019-04-20T12:42:44.257Z,1.20
2019-04-20T12:45:11.952Z,1.10
2019-04-20T12:47:39.626Z,1.35
2019-04-20T12:50:09.713Z,1.27
2019-04-20T12:52:36.550Z,1.10
2019-04-20T12:55:08.429Z,1.30
2019-04-20T12:57:34.945Z,1.12
2019-04-20T13:00:01.971Z,1.05
2019-04-20T13:02:29.689Z,0.93
2019-04-20T13:04:57.371Z,1.30
2019-04-20T13:07:24.770Z,1.15
2019-04-20T13:09:52.655Z,1.10
2019-04-20T13:12:21.584Z,1.30
2019-04-20T13:15:26.945Z,1.30
2019-04-20T13:17:54.327Z,1.10
2019-04-20T13:20:21.649Z,1.10
2019-04-20T13:22:48.732Z,1.20
2019-04-20T13:25:15.296Z,1.00
2019-04-20T13:27:42.926Z,0.90
2019-04-20T13:30:09.560Z,0.98
2019-04-20T13:32:36.113Z,1.07
2019-04-20T13:35:07.910Z,1.10
2019-04-20T13:37:36.841Z,1.05
2019-04-20T13:40:04.941Z,0.90
2019-04-20T13:42:33.053Z,1.12
2019-04-20T13:45:01.041Z,1.10
2019-04-20T13:47:28.355Z,1.20
2019-04-20T13:49:54.943Z,1.40
2019-04-20T13:52:22.594Z,1.10
2019-04-20T13:54:49.699Z,1.00
2019-04-20T13:57:21.713Z,1.03
2019-04-20T13:59:50.294Z,1.20
2019-04-20T14:02:35.153Z,1.20
2019-04-20T14:05:02.836Z,1.20
2019-04-20T14:07:33.204Z,1.10
2019-04-20T14:09:59.789Z,1.32
2019-04-20T14:12:32.367Z,1.17
2019-04-20T14:14:55.269Z,1.10
2019-04-20T14:17:21.548Z,1.17
2019-04-20T14:19:47.773Z,0.82
2019-04-20T14:22:15.256Z,1.07
2019-04-20T14:24:42.677Z,1.27
2019-04-20T14:27:09.102Z,1.30
2019-04-20T14:29:35.370Z,1.00
2019-04-20T14:32:03.730Z,1.00
2019-04-20T14:34:31.023Z,1.10
2019-04-20T14:36:57.437Z,1.30
2019-04-20T14:39:24.539Z,1.22
2019-04-20T14:41:52.008Z,1.10
2019-04-20T14:44:19.517Z,1.37
2019-04-20T14:46:47.451Z,1.05
2019-04-20T14:49:28.397Z,1.15
2019-04-20T14:51:57.553Z,1.10
2019-04-20T14:56:49.775Z,1.30
2019-04-20T14:59:17.885Z,1.40
2019-04-20T15:04:22.923Z,1.30
2019-04-20T15:09:13.157Z,1.20
2019-04-20T15:11:41.617Z,1.17
2019-04-20T15:16:35.288Z,1.82
2019-04-20T15:19:03.408Z,1.20
2019-04-20T15:23:57.736Z,1.20
2019-04-20T15:26:26.486Z,1.10
2019-04-20T15:28:52.922Z,1.17
2019-04-20T15:31:20.338Z,1.40
2019-04-20T15:33:46.772Z,1.47
2019-04-20T15:36:14.309Z,1.10
2019-04-20T15:38:40.892Z,1.40
2019-04-20T15:41:11.072Z,1.30
2019-04-20T15:43:37.414Z,1.07
2019-04-20T15:46:05.367Z,1.30
2019-04-20T15:50:58.517Z,1.20
2019-04-20T15:53:25.833Z,1.20
2019-04-20T15:55:53.158Z,1.10
2019-04-20T15:58:20.659Z,1.33
2019-04-20T16:00:46.998Z,1.30
2019-04-20T16:03:15.269Z,1.20
2019-04-20T16:05:53.404Z,0.90
2019-04-20T16:08:32.223Z,1.30
2019-04-20T16:10:59.388Z,1.05
2019-04-20T16:15:56.027Z,1.00
2019-04-20T16:18:23.034Z,0.80
2019-04-20T16:20:58.072Z,0.65
2019-04-20T16:23:18.637Z,0.88
2019-04-20T16:25:55.743Z,1.00
2019-04-20T16:28:22.015Z,0.70
2019-04-20T16:30:49.681Z,0.80
2019-04-20T16:33:16.514Z,0.88
2019-04-20T16:35:42.756Z,0.80
2019-04-20T16:38:08.969Z,0.70
2019-04-20T16:40:35.671Z,0.90
2019-04-20T16:43:03.766Z,0.88
2019-04-20T16:47:58.819Z,0.70
2019-04-20T16:52:51.049Z,0.80
2019-04-20T16:55:17.330Z,0.70
2019-04-20T16:57:47.571Z,0.82
2019-04-20T17:02:40.456Z,0.88
2019-04-20T17:05:07.324Z,0.98
2019-04-20T17:07:35.653Z,0.78
2019-04-20T17:12:30.853Z,0.93
2019-04-20T17:14:58.073Z,0.90
2019-04-20T17:17:25.297Z,0.70
2019-04-20T17:19:51.801Z,0.80
2019-04-20T17:22:19.174Z,0.90
2019-04-20T17:24:45.568Z,0.95
2019-04-20T17:27:16.990Z,0.90
2019-04-20T17:29:48.584Z,0.70
2019-04-20T17:32:16.502Z,0.70
2019-04-20T17:37:11.014Z,0.93
2019-04-20T17:40:01.746Z,0.80
2019-04-20T17:49:42.339Z,0.70
2019-04-20T17:57:04.610Z,0.80
2019-04-20T17:59:32.330Z,0.70
2019-04-20T18:02:20.765Z,0.85
2019-04-20T18:05:25.819Z,1.00
2019-04-20T18:07:36.618Z,0.80
2019-04-20T18:12:25.217Z,0.90
2019-04-20T18:14:53.466Z,0.70
2019-04-20T18:17:29.347Z,0.78
2019-04-20T18:19:54.550Z,1.10
2019-04-20T18:22:21.540Z,0.80
2019-04-20T18:25:10.420Z,0.80
2019-04-20T18:27:38.907Z,0.80
2019-04-20T18:30:01.373Z,0.90
2019-04-20T18:32:33.996Z,0.65
2019-04-20T18:35:05.346Z,0.78
2019-04-20T18:37:32.764Z,0.90
2019-04-20T18:40:07.145Z,0.80
2019-04-20T18:45:12.478Z,1.12
2019-04-20T18:47:45.592Z,0.95
2019-04-20T18:52:20.150Z,1.57
2019-04-20T18:54:49.754Z,1.20
2019-04-20T18:57:21.819Z,1.30
2019-04-20T18:59:48.834Z,1.30
2019-04-20T19:02:16.693Z,1.20
2019-04-20T19:04:39.735Z,1.17
2019-04-20T19:07:06.175Z,0.97
2019-04-20T19:09:34.258Z,1.20
2019-04-20T19:12:04.045Z,0.80
2019-04-20T19:14:37.156Z,1.05
2019-04-20T19:17:10.854Z,0.88
2019-04-20T19:19:42.352Z,1.42
2019-04-20T19:22:04.037Z,1.10
2019-04-20T19:24:33.457Z,0.85
2019-04-20T19:27:03.508Z,0.82
2019-04-20T19:29:32.787Z,0.75
2019-04-20T19:32:14.055Z,1.25
2019-04-20T19:39:32.340Z,1.15
2019-04-20T19:44:26.699Z,1.20
2019-04-20T19:47:05.245Z,1.02
2019-04-20T19:49:25.090Z,1.40
2019-04-20T19:52:13.641Z,0.90
2019-04-20T19:56:48.747Z,0.93
2019-04-20T19:59:15.782Z,1.02
2019-04-20T20:04:04.062Z,1.20
2019-04-20T20:06:36.550Z,1.50
2019-04-20T20:11:30.467Z,1.30
2019-04-20T20:13:55.340Z,1.10
2019-04-20T20:16:30.528Z,1.32
2019-04-20T20:19:01.907Z,0.85
2019-04-20T20:21:31.825Z,1.07
2019-04-20T20:23:45.951Z,1.05
2019-04-20T20:26:19.661Z,0.98
2019-04-20T20:28:48.687Z,0.78
2019-04-20T20:31:20.813Z,1.07
2019-04-20T20:33:51.100Z,1.12
2019-04-20T20:36:13.998Z,0.93
2019-04-20T20:41:10.317Z,0.78
2019-04-20T20:46:11.802Z,0.85
2019-04-20T20:48:38.803Z,0.70
2019-04-20T20:51:09.220Z,0.90
2019-04-20T20:53:35.282Z,1.30
2019-04-20T20:58:32.495Z,0.93
2019-04-20T21:00:58.548Z,1.00
2019-04-20T21:03:22.705Z,0.82
2019-04-20T21:05:42.576Z,1.22
2019-04-20T21:08:08.900Z,1.40
2019-04-20T21:10:40.974Z,1.10
2019-04-20T21:13:08.217Z,0.95
2019-04-20T21:18:22.613Z,0.75
2019-04-20T21:20:47.923Z,1.00
2019-04-20T21:23:07.327Z,0.95
2019-04-20T21:25:34.559Z,0.80
2019-04-20T21:27:58.564Z,1.02
2019-04-20T21:30:33.144Z,1.00
2019-04-20T21:32:57.284Z,0.85
2019-04-20T21:35:21.827Z,1.00
2019-04-20T21:37:55.492Z,0.80
2019-04-20T21:40:25.147Z,0.90
2019-04-20T21:50:25.358Z,0.93
2019-04-20T21:52:44.129Z,1.00
2019-04-20T21:55:08.023Z,0.90
2019-04-20T21:57:40.992Z,1.30
2019-04-20T22:02:44.710Z,1.10
2019-04-20T22:05:05.369Z,1.07
2019-04-20T22:07:32.361Z,1.05
2019-04-20T22:10:00.161Z,1.00
2019-04-20T22:12:30.597Z,1.17
2019-04-20T22:15:00.821Z,1.00
2019-04-20T22:17:28.858Z,1.15
2019-04-20T22:22:38.278Z,1.10
2019-04-20T22:25:01.475Z,1.20
2019-04-20T22:27:23.946Z,1.10
2019-04-20T22:29:46.177Z,1.17
2019-04-20T22:32:16.169Z,0.80
2019-04-20T22:34:41.833Z,0.95
2019-04-20T22:37:13.704Z,1.02
2019-04-20T22:39:42.132Z,1.00
2019-04-20T22:42:09.697Z,0.98
2019-04-20T22:47:05.376Z,0.90
2019-04-20T22:49:44.079Z,1.02
2019-04-20T22:52:11.991Z,0.95
2019-04-20T22:57:08.538Z,0.85
2019-04-20T23:01:56.129Z,1.20
2019-04-20T23:04:19.457Z,0.80
2019-04-20T23:06:49.965Z,0.90
2019-04-20T23:09:14.858Z,0.95
2019-04-20T23:11:42.287Z,1.20
2019-04-20T23:14:08.820Z,1.00
2019-04-20T23:16:43.214Z,1.10
2019-04-20T23:19:04.450Z,0.93
2019-04-20T23:21:32.144Z,1.52
2019-04-20T23:24:00.499Z,0.80
2019-04-20T23:26:33.498Z,0.72
2019-04-20T23:28:57.731Z,0.90
2019-04-20T23:31:25.577Z,0.90
2019-04-20T23:36:25.766Z,1.57
2019-04-20T23:38:50.012Z,0.80
2019-04-20T23:41:15.470Z,1.05
2019-04-20T23:43:44.881Z,1.00
2019-04-20T23:46:29.258Z,0.80
2019-04-20T23:49:19.992Z,1.02
2019-04-20T23:51:59.039Z,1.10
2019-04-20T23:54:15.804Z,1.00
2019-04-20T23:56:37.578Z,1.00
2019-04-20T23:59:04.419Z,0.80
